Map

Track Data

SID SEASON NUMBER BASIN SUBBASIN NAME ISO_TIME NATURE LAT LON WMO_WIND WMO_PRES WMO_AGENCY TRACK_TYPE DIST2LAND LANDFALL IFLAG USA_AGENCY USA_ATCF_ID USA_LAT USA_LON USA_RECORD USA_STATUS USA_WIND USA_PRES USA_SSHS USA_R34_NE USA_R34_SE USA_R34_SW USA_R34_NW USA_R50_NE USA_R50_SE USA_R50_SW USA_R50_NW USA_R64_NE USA_R64_SE USA_R64_SW USA_R64_NW USA_POCI USA_ROCI USA_RMW USA_EYE TOKYO_LAT TOKYO_LON TOKYO_GRADE TOKYO_WIND TOKYO_PRES TOKYO_R50_DIR TOKYO_R50_LONG TOKYO_R50_SHORT TOKYO_R30_DIR TOKYO_R30_LONG TOKYO_R30_SHORT TOKYO_LAND CMA_LAT CMA_LON CMA_CAT CMA_WIND CMA_PRES HKO_LAT HKO_LON HKO_CAT HKO_WIND HKO_PRES NEWDELHI_LAT NEWDELHI_LON NEWDELHI_GRADE NEWDELHI_WIND NEWDELHI_PRES NEWDELHI_CI NEWDELHI_DP NEWDELHI_POCI REUNION_LAT REUNION_LON REUNION_TYPE REUNION_WIND REUNION_PRES REUNION_TNUM REUNION_CI REUNION_RMW REUNION_R34_NE REUNION_R34_SE REUNION_R34_SW REUNION_R34_NW REUNION_R50_NE REUNION_R50_SE REUNION_R50_SW REUNION_R50_NW REUNION_R64_NE REUNION_R64_SE REUNION_R64_SW REUNION_R64_NW BOM_LAT BOM_LON BOM_TYPE BOM_WIND BOM_PRES BOM_TNUM BOM_CI BOM_RMW BOM_R34_NE BOM_R34_SE BOM_R34_SW BOM_R34_NW BOM_R50_NE BOM_R50_SE BOM_R50_SW BOM_R50_NW BOM_R64_NE BOM_R64_SE BOM_R64_SW BOM_R64_NW BOM_ROCI BOM_POCI BOM_EYE BOM_POS_METHOD BOM_PRES_METHOD NADI_LAT NADI_LON NADI_CAT NADI_WIND NADI_PRES WELLINGTON_LAT WELLINGTON_LON WELLINGTON_WIND WELLINGTON_PRES DS824_LAT DS824_LON DS824_STAGE DS824_WIND DS824_PRES TD9636_LAT TD9636_LON TD9636_STAGE TD9636_WIND TD9636_PRES TD9635_LAT TD9635_LON TD9635_WIND TD9635_PRES TD9635_ROCI NEUMANN_LAT NEUMANN_LON NEUMANN_CLASS NEUMANN_WIND NEUMANN_PRES MLC_LAT MLC_LON MLC_CLASS MLC_WIND MLC_PRES USA_GUST BOM_GUST BOM_GUST_PER REUNION_GUST REUNION_GUST_PER USA_SEAHGT USA_SEARAD_NE USA_SEARAD_SE USA_SEARAD_SW USA_SEARAD_NW STORM_SPEED STORM_DIR
1947314N14130 1947 91 WP MM ELNORA 1947-11-10 00:00:00 TS 14.2000 129.800 main 516 512 O________OOO__ jtwc_wp WP221947 14.2000 129.800 35 0 14.2000 129.800 TC 35 14.2000 129.800 2 35 14.2000 129.800 35 998 240 7 335
1947314N14130 1947 91 WP MM ELNORA 1947-11-10 03:00:00 TS 14.5289 129.644 main 513 513 P________PPP__ WP221947 14.4276 129.603 37 0 14.4276 129.603 TC 37 14.8329 129.769 2 37 14.4276 129.603 37 997 300 9 345
1947314N14130 1947 91 WP MM ELNORA 1947-11-10 06:00:00 TS 15.0407 129.557 main 542 542 O________OPO__ jtwc_wp WP221947 14.9000 129.500 40 0 14.9000 129.500 TC 40 15.4626 129.730 2 40 14.9000 129.500 40 996 360 13 357
1947314N14130 1947 91 WP MM ELNORA 1947-11-10 09:00:00 TS 15.8378 129.576 main 598 598 P________PPP__ WP221947 15.7550 129.542 42 0 15.7550 129.542 TC 42 16.0860 129.676 2 42 15.7550 129.542 42 995 330 17 1
1947314N14130 1947 91 WP MM ELNORA 1947-11-10 12:00:00 TS 16.7000 129.600 main 639 639 O________OOO__ jtwc_wp WP221947 16.7000 129.600 45 0 16.7000 129.600 TC 45 16.7000 129.600 2 45 16.7000 129.600 45 995 300 16 358
1947314N14130 1947 91 WP MM ELNORA 1947-11-10 15:00:00 TS 17.3933 129.522 main 672 672 P________PPP__ WP221947 17.4249 129.530 47 0 17.4249 129.530 TC 47 17.2984 129.497 2 43 17.4249 129.530 47 996 300 13 351
1947314N14130 1947 91 WP MM ELNORA 1947-11-10 18:00:00 TS 17.9656 129.393 main 704 703 O________OPO__ jtwc_wp WP221947 18.0000 129.400 50 0 18.0000 129.400 TC 50 17.8624 129.373 2 42 18.0000 129.400 50 997 300 11 346
1947314N14130 1947 91 WP MM ELNORA 1947-11-10 21:00:00 TS 18.4319 129.258 main 726 717 P________PPP__ WP221947 18.4525 129.265 45 0 18.4525 129.265 TC 45 18.3703 129.237 2 41 18.4525 129.265 45 997 270 9 342
1947314N14130 1947 91 WP MM ELNORA 1947-11-11 00:00:00 TS 18.8000 129.100 main 718 699 O________OOO__ jtwc_wp WP221947 18.8000 129.100 40 0 18.8000 129.100 TC 40 18.8000 129.100 2 40 18.8000 129.100 40 998 240 8 334
1947314N14130 1947 91 WP MM ELNORA 1947-11-11 03:00:00 TS 19.1318 128.896 main 699 682 P________PPP__ WP221947 19.1301 128.885 40 0 19.1301 128.885 TC 40 19.1372 128.930 2 40 19.1301 128.885 40 998 270 7 329
1947314N14130 1947 91 WP MM ELNORA 1947-11-11 06:00:00 TS 19.3994 128.717 main 682 673 O________OPO__ jtwc_wp WP221947 19.4000 128.700 40 0 19.4000 128.700 TC 40 19.3975 128.768 2 40 19.4000 128.700 40 998 300 5 331
1947314N14130 1947 91 WP MM ELNORA 1947-11-11 09:00:00 TS 19.6078 128.621 main 675 675 P________PPP__ WP221947 19.6075 128.612 40 0 19.6075 128.612 TC 40 19.6090 128.646 2 40 19.6075 128.612 40 998 300 4 344
1947314N14130 1947 91 WP MM ELNORA 1947-11-11 12:00:00 TS 19.8000 128.600 main 680 680 O________OOO__ jtwc_wp WP221947 19.8000 128.600 40 0 19.8000 128.600 TC 40 19.8000 128.600 2 40 19.8000 128.600 40 998 300 4 357
1947314N14130 1947 91 WP MM ELNORA 1947-11-11 15:00:00 TS 20.0497 128.615 main 685 685 P________PPP__ WP221947 20.0574 128.605 40 0 20.0574 128.605 TC 40 20.0264 128.646 2 40 20.0574 128.605 40 998 270 5 13
1947314N14130 1947 91 WP MM ELNORA 1947-11-11 18:00:00 TS 20.2843 128.718 main 704 704 O________OPO__ jtwc_wp WP221947 20.3000 128.700 40 0 20.3000 128.700 TC 40 20.2373 128.772 2 40 20.3000 128.700 40 998 240 5 36
1947314N14130 1947 91 WP MM ELNORA 1947-11-11 21:00:00 TS 20.4618 128.936 main 730 730 P________PPP__ WP221947 20.4726 128.927 40 0 20.4726 128.927 TC 40 20.4295 128.962 2 40 20.4726 128.927 40 998 210 6 55
1947314N14130 1947 91 WP MM ELNORA 1947-11-12 00:00:00 TS 20.6000 129.200 main 763 763 O________OOO__ jtwc_wp WP221947 20.6000 129.200 40 0 20.6000 129.200 TC 40 20.6000 129.200 2 40 20.6000 129.200 40 998 180 5 60
1947314N14130 1947 91 WP MM ELNORA 1947-11-12 03:00:00 TS 20.7117 129.401 main 787 787 P________PPP__ WP221947 20.6998 129.378 37 0 20.6998 129.378 TC 37 20.7472 129.472 2 37 20.6998 129.378 37 998 180 5 62
1947314N14130 1947 91 WP MM ELNORA 1947-11-12 06:00:00 TS 20.8151 129.633 main 810 810 O________OPO__ jtwc_wp WP221947 20.8000 129.600 35 0 20.8000 129.600 TC 35 20.8756 129.767 2 35 20.8000 129.600 35 999 180 6 66
1947314N14130 1947 91 WP MM ELNORA 1947-11-12 09:00:00 TS 20.9429 129.960 main 853 853 P________PPP__ WP221947 20.9348 129.940 32 -1 20.9348 129.940 TC 32 20.9912 130.079 2 32 20.9348 129.940 32 999 180 8 68
1947314N14130 1947 91 WP MM ELNORA 1947-11-12 12:00:00 TS 21.1000 130.400 main 899 899 O________OOO__ jtwc_wp WP221947 21.1000 130.400 30 -1 21.1000 130.400 TC 30 21.1000 130.400 1 30 21.1000 130.400 30 1000 180 10 70
1947314N14130 1947 91 WP MM ELNORA 1947-11-12 15:00:00 TS 21.2931 130.970 main 965 965 P________P_P__ WP221947 21.2931 130.970 30 -1 21.2931 130.970 TC 30 1 21.2931 130.970 30 1000 210 12 70
1947314N14130 1947 91 WP MM ELNORA 1947-11-12 18:00:00 TS 21.5000 131.600 main 1031 O________O_O__ jtwc_wp WP221947 21.5000 131.600 30 -1 21.5000 131.600 TC 30 1 21.5000 131.600 30 1001 240 12 71

Digital Typhoon Data and Search

About IBTrACS Database

This database is a web-friendly format of International Best Track Archive for Climate Stewardship (IBTrACS), a global best track data archive curated by NOAA dating back to 1842.

Updated: 2021-12-01